Airport View

Enter AWOS ICAO identifier for current METAR.

ex. KFNL

KCGE 192200Z AUTO 00000KT 10SM CLR 15/06 A3004 RMK A01

19 Oct 2019 22:18

Frequency: 120.675

Phone: 410-228-7559

Other Area AWOS: KESN - KNHK - KSBY - K2W6

TAF KNHK 1915/2015 14008KT 9999 SCT250 QNH2999INS BECMG 2001/2003 17010KT 9999 FEW120 BKN250 QNH2995INS FM201000 12006KT 9999 VCSH FEW030 SCT120 BKN250 QNH2992INS TEMPO 2011/2014 4800 SHRA BR SCT020 BKN090 OVC180 AUTOMATED SENSOR METWATCH 1920 TIL 2012 T16/1921Z T12/2011Z FN00216